Time;durP1;ratioP1;P1;durP2;ratioP2;P2;SDS_P1;SDS_P2;PMS_P1;PMS_P2;Temp;Humidity;BMP_temperature;BMP_pressure;BME280_temperature;BME280_humidity;BME280_pressure;Samples;Min_cycle;Max_cycle;Signal;HPM_P1;HPM_P2
2023/08/11 00:01:39;;;;;;;12.63;8.05;;;;;;;16.31;100.00;101950.84;5089236;28;20040;-69
2023/08/11 00:04:06;;;;;;;15.20;9.40;;;;;;;16.20;100.00;101945.03;5089155;28;20028;-69
2023/08/11 00:06:31;;;;;;;11.35;7.57;;;;;;;16.18;100.00;101943.59;5088963;28;20032;-68
2023/08/11 00:08:56;;;;;;;13.07;8.43;;;;;;;16.20;100.00;101950.44;5089238;28;20024;-69
2023/08/11 00:11:22;;;;;;;14.02;9.80;;;;;;;16.14;100.00;101943.19;5087983;28;20036;-68
2023/08/11 00:13:49;;;;;;;13.75;8.55;;;;;;;16.15;100.00;101941.31;5069721;28;20135;-69
2023/08/11 00:16:15;;;;;;;12.50;9.15;;;;;;;16.13;100.00;101946.06;5069809;28;20036;-69
2023/08/11 00:18:40;;;;;;;14.30;8.85;;;;;;;16.09;100.00;101934.91;5069671;28;20024;-69
2023/08/11 00:21:06;;;;;;;15.40;9.82;;;;;;;16.07;100.00;101934.28;5069689;28;20115;-69
2023/08/11 00:23:31;;;;;;;14.77;9.32;;;;;;;16.07;100.00;101947.75;5069713;28;20177;-69
2023/08/11 00:25:57;;;;;;;16.60;9.98;;;;;;;16.07;100.00;101942.34;5069652;28;20037;-69
2023/08/11 00:28:22;;;;;;;17.38;9.18;;;;;;;16.09;100.00;101944.84;5069667;28;20028;-69
2023/08/11 00:30:48;;;;;;;17.35;9.25;;;;;;;16.09;100.00;101948.38;5069508;28;20029;-69
2023/08/11 00:33:14;;;;;;;15.40;9.32;;;;;;;16.10;100.00;101943.81;5069297;28;20064;-69
2023/08/11 00:35:41;;;;;;;13.90;9.07;;;;;;;16.13;100.00;101933.44;5069545;28;20383;-69
2023/08/11 00:38:07;;;;;;;12.10;8.63;;;;;;;16.10;100.00;101935.72;5088592;28;20086;-69
2023/08/11 00:40:32;;;;;;;16.30;10.80;;;;;;;16.07;100.00;101936.16;5088822;28;20493;-69
2023/08/11 00:42:57;;;;;;;15.27;10.55;;;;;;;16.04;100.00;101932.00;5088914;28;20054;-69
2023/08/11 00:45:23;;;;;;;16.58;11.13;;;;;;;16.00;100.00;101930.75;5088966;28;20305;-69
2023/08/11 00:47:49;;;;;;;36.65;11.73;;;;;;;16.03;100.00;101933.03;5088733;28;20065;-69
2023/08/11 00:50:17;;;;;;;15.15;10.23;;;;;;;16.05;100.00;101933.66;5088924;28;20028;-69
2023/08/11 00:52:45;;;;;;;19.70;11.32;;;;;;;15.98;100.00;101930.13;5087344;28;20081;-69
2023/08/11 00:55:12;;;;;;;13.02;8.48;;;;;;;16.01;100.00;101929.72;5088784;28;20479;-69
2023/08/11 00:57:38;;;;;;;14.10;10.05;;;;;;;15.98;100.00;101922.91;5088695;28;20102;-69
2023/08/11 01:00:14;;;;;;;16.00;10.60;;;;;;;15.93;100.00;101917.31;5087358;28;20115;-69
2023/08/11 01:02:42;;;;;;;18.48;11.07;;;;;;;15.95;100.00;101914.41;5088582;28;20035;-69
2023/08/11 01:05:09;;;;;;;15.82;11.23;;;;;;;15.90;100.00;101908.81;5087400;28;20093;-69
2023/08/11 01:07:43;;;;;;;17.58;10.90;;;;;;;15.88;100.00;101916.28;5088486;28;20382;-69
2023/08/11 01:10:21;;;;;;;15.88;10.95;;;;;;;15.87;100.00;101906.53;5088421;28;20028;-69
2023/08/11 01:13:04;;;;;;;15.20;9.93;;;;;;;15.87;100.00;101906.53;5088550;28;20046;-69
2023/08/11 01:15:38;;;;;;;15.57;11.60;;;;;;;15.84;100.00;101904.25;5088494;28;20020;-69
2023/08/11 01:18:05;;;;;;;19.05;11.70;;;;;;;15.83;100.00;101903.44;5089967;28;20382;-69
2023/08/11 01:20:31;;;;;;;14.05;9.77;;;;;;;15.84;100.00;101902.38;5092401;28;20498;-69
2023/08/11 01:23:00;;;;;;;16.52;10.05;;;;;;;15.86;100.00;101892.25;5092287;28;20057;-69
2023/08/11 01:25:25;;;;;;;16.60;11.48;;;;;;;15.84;100.00;101894.31;5092163;28;20085;-69
2023/08/11 01:27:56;;;;;;;18.17;11.77;;;;;;;15.86;100.00;101888.75;5090886;28;20020;-69
2023/08/11 01:30:22;;;;;;;17.48;12.10;;;;;;;15.85;100.00;101882.53;5092076;28;20521;-69
2023/08/11 01:32:48;;;;;;;17.63;11.40;;;;;;;15.80;100.00;101873.41;5091846;28;20473;-69
2023/08/11 01:35:13;;;;;;;17.00;11.55;;;;;;;15.89;100.00;101889.16;5092037;28;20059;-69
2023/08/11 01:37:39;;;;;;;25.65;12.40;;;;;;;15.85;100.00;101884.38;5092218;28;20119;-69
2023/08/11 01:40:10;;;;;;;18.30;12.40;;;;;;;15.81;100.00;101883.97;5091937;28;20507;-69
2023/08/11 01:42:40;;;;;;;18.05;11.90;;;;;;;15.83;100.00;101883.78;5092000;28;20024;-69
2023/08/11 01:45:08;;;;;;;16.02;11.60;;;;;;;15.76;100.00;101886.44;5092054;28;20024;-69
2023/08/11 01:47:35;;;;;;;18.90;12.55;;;;;;;15.74;100.00;101881.25;5091880;28;20043;-69
2023/08/11 01:50:02;;;;;;;18.40;13.32;;;;;;;15.76;100.00;101887.28;5091773;28;20815;-69
2023/08/11 01:52:30;;;;;;;20.25;13.93;;;;;;;15.80;100.00;101886.84;5091565;28;20028;-69
2023/08/11 01:54:56;;;;;;;18.98;12.50;;;;;;;15.72;100.00;101877.97;5091664;28;20039;-69
2023/08/11 01:57:22;;;;;;;18.80;11.65;;;;;;;15.78;100.00;101885.22;5091472;28;20054;-69
2023/08/11 01:59:47;;;;;;;19.25;13.52;;;;;;;15.78;100.00;101897.84;5091479;28;20036;-69
2023/08/11 02:02:13;;;;;;;17.40;12.13;;;;;;;15.72;100.00;101890.59;5091608;28;20030;-69
2023/08/11 02:04:38;;;;;;;18.08;13.25;;;;;;;15.70;100.00;101896.16;5091555;28;20067;-69
2023/08/11 02:07:04;;;;;;;20.63;13.85;;;;;;;15.61;100.00;101891.97;5091393;28;20031;-69
2023/08/11 02:09:30;;;;;;;17.85;11.85;;;;;;;15.59;100.00;101886.00;5091300;28;20372;-69
2023/08/11 02:11:55;;;;;;;18.80;13.32;;;;;;;15.57;100.00;101882.69;5091214;28;20047;-69
2023/08/11 02:14:21;;;;;;;17.98;13.05;;;;;;;15.45;100.00;101879.75;5091323;28;20032;-69
2023/08/11 02:16:46;;;;;;;17.77;12.48;;;;;;;15.46;100.00;101869.84;5091060;28;20488;-69
2023/08/11 02:19:12;;;;;;;17.77;12.95;;;;;;;15.46;100.00;101873.34;5091360;28;20020;-69
2023/08/11 02:21:39;;;;;;;18.73;13.90;;;;;;;15.45;100.00;101873.53;5091225;28;20026;-69
2023/08/11 02:24:04;;;;;;;18.98;13.38;;;;;;;15.41;100.00;101873.13;5091228;28;20644;-69
2023/08/11 02:26:30;;;;;;;17.73;13.05;;;;;;;15.47;100.00;101869.63;5091071;28;20047;-69
2023/08/11 02:28:55;;;;;;;19.92;13.88;;;;;;;15.45;100.00;101865.47;5090943;28;20036;-69
2023/08/11 02:31:20;;;;;;;22.33;13.20;;;;;;;15.39;100.00;101859.06;5090684;28;20032;-69
2023/08/11 02:33:46;;;;;;;19.58;13.45;;;;;;;15.39;100.00;101860.94;5090769;28;20048;-69
2023/08/11 02:36:13;;;;;;;20.55;13.82;;;;;;;15.36;100.00;101854.09;5090700;28;20161;-69
2023/08/11 02:38:39;;;;;;;20.27;13.95;;;;;;;15.31;100.00;101859.25;5090868;28;20498;-69
2023/08/11 02:41:04;;;;;;;19.95;13.90;;;;;;;15.32;100.00;101863.59;5090852;28;20039;-69
2023/08/11 02:43:30;;;;;;;18.40;12.85;;;;;;;15.28;100.00;101860.50;5089478;28;20028;-69
2023/08/11 02:45:55;;;;;;;18.38;13.23;;;;;;;15.32;100.00;101859.03;5090830;28;20031;-69
2023/08/11 02:48:21;;;;;;;19.23;13.82;;;;;;;15.30;100.00;101866.50;5090661;28;20030;-69
2023/08/11 02:50:46;;;;;;;21.20;13.50;;;;;;;15.31;100.00;101868.16;5090585;28;20055;-68
2023/08/11 02:53:11;;;;;;;20.80;13.65;;;;;;;15.30;100.00;101873.72;5090705;28;20072;-68
2023/08/11 02:55:37;;;;;;;19.35;14.23;;;;;;;15.24;100.00;101877.22;5090564;28;20035;-68
2023/08/11 02:58:02;;;;;;;20.63;14.27;;;;;;;15.17;100.00;101879.03;5090528;28;20032;-69
2023/08/11 03:00:28;;;;;;;21.20;14.90;;;;;;;15.06;100.00;101864.34;5074642;28;20081;-69
2023/08/11 03:02:54;;;;;;;20.73;15.10;;;;;;;15.11;100.00;101878.81;5071034;28;20566;-69
2023/08/11 03:05:20;;;;;;;20.90;15.23;;;;;;;15.08;100.00;101868.47;5070888;28;20060;-69
2023/08/11 03:07:45;;;;;;;18.90;13.73;;;;;;;15.12;100.00;101877.00;5070858;28;20085;-69
2023/08/11 03:10:10;;;;;;;20.38;14.85;;;;;;;15.11;100.00;101881.50;5070819;28;20036;-69
2023/08/11 03:12:36;;;;;;;20.80;14.30;;;;;;;15.05;100.00;101876.94;5070835;28;20035;-69
2023/08/11 03:15:05;;;;;;;22.38;14.88;;;;;;;14.99;100.00;101872.38;5070827;28;20538;-69
2023/08/11 03:17:32;;;;;;;21.80;15.48;;;;;;;15.01;100.00;101872.16;5070698;28;20033;-68
2023/08/11 03:19:57;;;;;;;22.63;16.60;;;;;;;14.98;100.00;101876.09;5070658;28;20078;-69
2023/08/11 03:22:23;;;;;;;20.40;14.32;;;;;;;14.87;100.00;101861.38;5070597;28;20472;-69
2023/08/11 03:24:49;;;;;;;21.23;13.85;;;;;;;14.88;100.00;101862.19;5070512;28;20136;-69
2023/08/11 03:27:17;;;;;;;21.92;14.10;;;;;;;14.83;100.00;101862.81;5070275;28;20516;-69
2023/08/11 03:29:42;;;;;;;19.52;14.27;;;;;;;14.84;100.00;101869.84;5089709;28;20046;-69
2023/08/11 03:32:08;;;;;;;19.63;14.73;;;;;;;14.84;100.00;101861.78;5089445;28;20047;-69
2023/08/11 03:34:33;;;;;;;22.50;14.95;;;;;;;14.82;100.00;101861.16;5089712;28;20024;-69
2023/08/11 03:36:58;;;;;;;23.00;16.10;;;;;;;14.84;100.00;101863.66;5089628;28;20440;-69
2023/08/11 03:39:24;;;;;;;22.38;17.52;;;;;;;14.81;100.00;101861.38;5089916;28;20443;-69
2023/08/11 03:41:51;;;;;;;21.83;15.23;;;;;;;14.77;100.00;101863.59;5089150;28;20081;-69
2023/08/11 03:44:16;;;;;;;19.92;13.43;;;;;;;14.76;100.00;101863.81;5088384;28;20040;-69
2023/08/11 03:46:41;;;;;;;21.42;14.68;;;;;;;14.72;100.00;101860.69;5089604;28;20407;-69
2023/08/11 03:49:07;;;;;;;22.20;14.20;;;;;;;14.77;100.00;101868.97;5088118;28;20028;-69
2023/08/11 03:51:33;;;;;;;19.55;14.80;;;;;;;14.77;100.00;101858.22;5089265;28;20081;-69
2023/08/11 03:54:02;;;;;;;19.65;14.90;;;;;;;14.78;100.00;101864.44;5089355;28;20032;-69
2023/08/11 03:56:27;;;;;;;23.13;16.25;;;;;;;14.74;100.00;101858.63;5089374;28;20056;-69
2023/08/11 03:58:53;;;;;;;19.60;13.68;;;;;;;14.80;100.00;101857.00;5089384;28;20048;-69
2023/08/11 04:01:18;;;;;;;21.33;15.35;;;;;;;14.82;100.00;101860.31;5089379;28;20542;-69
2023/08/11 04:03:43;;;;;;;22.08;16.52;;;;;;;14.81;100.00;101859.50;5089213;28;20032;-69
2023/08/11 04:06:10;;;;;;;23.45;16.50;;;;;;;14.73;100.00;101858.84;5089329;28;20122;-69
2023/08/11 04:08:35;;;;;;;20.70;14.50;;;;;;;14.70;100.00;101860.06;5089196;28;20027;-69
2023/08/11 04:11:00;;;;;;;23.95;15.75;;;;;;;14.65;100.00;101849.94;5089015;28;20028;-69
2023/08/11 04:13:26;;;;;;;24.17;15.88;;;;;;;14.65;100.00;101849.09;5087759;28;20032;-69
2023/08/11 04:15:52;;;;;;;23.90;16.40;;;;;;;14.61;100.00;101859.38;5088288;28;20051;-69
2023/08/11 04:18:17;;;;;;;20.17;14.57;;;;;;;14.57;100.00;101850.09;5087769;28;20038;-69
2023/08/11 04:20:43;;;;;;;21.73;15.18;;;;;;;14.61;100.00;101856.72;5087838;28;20032;-69
2023/08/11 04:23:08;;;;;;;23.73;15.30;;;;;;;14.62;100.00;101861.06;5087835;28;20038;-69
2023/08/11 04:25:33;;;;;;;23.70;17.23;;;;;;;14.62;100.00;101858.38;5088056;28;20062;-69
2023/08/11 04:28:01;;;;;;;22.88;15.93;;;;;;;14.57;100.00;101846.59;5088240;28;20036;-69
2023/08/11 04:30:26;;;;;;;35.25;14.48;;;;;;;14.61;100.00;101850.50;5088526;28;20382;-69
2023/08/11 04:32:52;;;;;;;21.88;14.23;;;;;;;14.60;100.00;101854.25;5088423;28;20048;-69
2023/08/11 04:35:18;;;;;;;20.27;14.35;;;;;;;14.62;100.00;101855.69;5069243;28;20036;-69
2023/08/11 04:37:43;;;;;;;20.15;15.13;;;;;;;14.61;100.00;101859.38;5068099;28;20032;-69
2023/08/11 04:40:10;;;;;;;23.90;16.05;;;;;;;14.54;100.00;101845.13;5068754;28;20028;-69
2023/08/11 04:42:36;;;;;;;20.75;16.50;;;;;;;14.59;100.00;101850.72;5068473;28;20039;-69
2023/08/11 04:45:01;;;;;;;23.85;16.23;;;;;;;14.57;100.00;101854.63;5068156;28;20028;-69
2023/08/11 04:47:26;;;;;;;24.42;16.17;;;;;;;14.54;100.00;101853.19;5069062;28;20029;-69
2023/08/11 04:49:52;;;;;;;19.70;14.13;;;;;;;14.60;100.00;101854.25;5083132;28;20028;-68
2023/08/11 04:52:17;;;;;;;21.15;15.57;;;;;;;14.62;100.00;101854.88;5088600;28;20059;-69
2023/08/11 04:54:42;;;;;;;23.10;15.27;;;;;;;14.65;100.00;101854.47;5092778;28;20103;-69
2023/08/11 04:57:08;;;;;;;22.38;16.20;;;;;;;14.72;100.00;101849.94;5092679;28;20081;-69
2023/08/11 04:59:33;;;;;;;21.38;15.45;;;;;;;14.82;100.00;101847.72;5092589;28;20486;-69
2023/08/11 05:02:00;;;;;;;23.98;16.85;;;;;;;14.85;100.00;101847.31;5092870;28;20060;-69
2023/08/11 05:04:25;;;;;;;22.30;15.50;;;;;;;14.89;100.00;101842.38;5092603;28;20032;-69
2023/08/11 05:06:51;;;;;;;21.15;15.90;;;;;;;14.93;100.00;101840.13;5092522;28;20452;-69
2023/08/11 05:09:16;;;;;;;23.63;16.30;;;;;;;14.99;100.00;101842.00;5090910;28;20081;-69
2023/08/11 05:11:41;;;;;;;22.95;16.02;;;;;;;15.07;100.00;101828.41;5092212;28;20032;-69
2023/08/11 05:14:07;;;;;;;25.52;18.45;;;;;;;15.15;100.00;101830.91;5092287;28;20028;-69
2023/08/11 05:16:32;;;;;;;23.50;17.88;;;;;;;15.21;100.00;101831.94;5092309;28;20525;-69
2023/08/11 05:18:58;;;;;;;28.50;20.30;;;;;;;15.30;100.00;101834.25;5092291;28;20082;-69
2023/08/11 05:21:23;;;;;;;35.22;19.38;;;;;;;15.37;100.00;101834.25;5092320;28;20024;-69
2023/08/11 05:23:48;;;;;;;26.17;20.00;;;;;;;15.45;100.00;101830.53;5092259;28;20922;-69
2023/08/11 05:26:14;;;;;;;27.02;21.02;;;;;;;15.53;100.00;101828.47;5092266;28;20066;-69
2023/08/11 05:28:39;;;;;;;24.85;19.45;;;;;;;15.62;100.00;101825.59;5091934;28;20126;-69
2023/08/11 05:31:04;;;;;;;26.02;20.30;;;;;;;15.69;100.00;101821.06;5091819;28;20097;-69
2023/08/11 05:33:31;;;;;;;23.95;17.60;;;;;;;15.75;100.00;101821.06;5091799;28;20075;-69
2023/08/11 05:35:56;;;;;;;26.15;20.20;;;;;;;15.80;100.00;101819.59;5092080;28;20093;-69
2023/08/11 05:38:22;;;;;;;24.52;18.52;;;;;;;15.91;100.00;101827.06;5092085;28;20065;-69
2023/08/11 05:40:48;;;;;;;27.98;18.27;;;;;;;15.98;100.00;101830.56;5090336;28;20039;-69
2023/08/11 05:43:14;;;;;;;25.13;18.83;;;;;;;16.06;100.00;101830.38;5091825;28;20032;-69
2023/08/11 05:45:40;;;;;;;22.73;18.33;;;;;;;16.12;100.00;101824.16;5091836;28;20144;-69
2023/08/11 05:48:06;;;;;;;23.55;17.40;;;;;;;16.19;100.00;101826.81;5090234;28;20472;-69
2023/08/11 05:50:31;;;;;;;23.55;17.27;;;;;;;16.25;100.00;101822.47;5091667;28;20046;-69
2023/08/11 05:52:57;;;;;;;22.13;15.18;;;;;;;16.31;100.00;101818.94;5091281;28;20021;-69
2023/08/11 05:55:23;;;;;;;22.63;16.48;;;;;;;16.39;100.00;101816.00;5091461;28;20056;-69
2023/08/11 05:57:49;;;;;;;20.30;15.93;;;;;;;16.47;100.00;101821.16;5090123;28;20055;-69
2023/08/11 06:00:17;;;;;;;21.23;15.88;;;;;;;16.55;100.00;101818.22;5091396;28;20407;-69
2023/08/11 06:02:43;;;;;;;20.55;15.63;;;;;;;16.56;100.00;101805.59;5091376;28;20969;-69
2023/08/11 06:05:09;;;;;;;21.63;14.68;;;;;;;16.62;100.00;101816.34;5090846;28;20041;-69
2023/08/11 06:07:34;;;;;;;24.67;15.18;;;;;;;16.69;100.00;101812.78;5091337;28;20032;-69
2023/08/11 06:10:00;;;;;;;21.58;15.93;;;;;;;16.78;100.00;101822.31;5091181;28;20028;-69
2023/08/11 06:12:25;;;;;;;23.80;15.20;;;;;;;16.84;100.00;101824.16;5091368;28;20039;-69
2023/08/11 06:14:50;;;;;;;20.30;13.75;;;;;;;16.86;100.00;101820.19;5090961;28;20032;-69
2023/08/11 06:17:16;;;;;;;22.90;15.43;;;;;;;16.95;100.00;101819.94;5090746;28;20608;-70
2023/08/11 06:19:41;;;;;;;24.75;16.10;;;;;;;16.99;100.00;101819.31;5091105;28;20035;-69
2023/08/11 06:22:06;;;;;;;19.63;13.57;;;;;;;17.03;100.00;101825.13;5091117;28;20074;-69
2023/08/11 06:24:32;;;;;;;20.48;13.05;;;;;;;17.04;100.00;101824.06;5091153;28;20498;-69
2023/08/11 06:26:57;;;;;;;23.52;15.05;;;;;;;17.10;100.00;101823.19;5091085;28;20038;-69
2023/08/11 06:29:23;;;;;;;23.25;14.23;;;;;;;17.13;100.00;101816.53;5091109;28;20036;-69
2023/08/11 06:31:48;;;;;;;22.85;14.25;;;;;;;17.25;100.00;101820.22;5090259;28;20509;-69
2023/08/11 06:34:17;;;;;;;22.75;13.50;;;;;;;17.31;100.00;101832.81;5090875;28;20495;-69
2023/08/11 06:36:44;;;;;;;22.08;14.55;;;;;;;17.35;100.00;101830.53;5090904;28;20051;-69
2023/08/11 06:39:10;;;;;;;20.88;13.98;;;;;;;17.41;100.00;101832.34;5089336;28;20471;-70
2023/08/11 06:41:35;;;;;;;22.92;14.25;;;;;;;17.47;100.00;101831.47;5090568;28;20537;-69
2023/08/11 06:44:01;;;;;;;22.08;14.57;;;;;;;17.52;100.00;101829.75;5090756;28;20039;-69
2023/08/11 06:46:26;;;;;;;21.23;14.30;;;;;;;17.58;100.00;101825.38;5071098;28;20431;-70
2023/08/11 06:48:51;;;;;;;18.67;12.80;;;;;;;17.68;100.00;101824.88;5070997;28;20629;-71
2023/08/11 06:51:17;;;;;;;22.65;13.43;;;;;;;17.71;100.00;101830.66;5070884;28;20021;-70
2023/08/11 06:53:42;;;;;;;18.67;14.27;;;;;;;17.83;100.00;101836.19;5071513;28;20039;-70
2023/08/11 06:56:08;;;;;;;24.77;15.55;;;;;;;17.90;100.00;101841.53;5074228;28;20023;-70
2023/08/11 06:58:33;;;;;;;19.80;12.48;;;;;;;17.93;100.00;101833.00;5070877;28;20533;-70
2023/08/11 07:00:59;;;;;;;19.73;13.50;;;;;;;18.04;100.00;101840.38;5070693;28;20155;-70
2023/08/11 07:03:25;;;;;;;22.15;13.40;;;;;;;18.12;100.00;101833.84;5082941;28;20066;-69
2023/08/11 07:05:51;;;;;;;21.52;13.85;;;;;;;18.20;100.00;101854.34;5089983;28;20023;-69
2023/08/11 07:08:18;;;;;;;21.40;14.30;;;;;;;18.27;100.00;101847.81;5081742;28;20106;-70
2023/08/11 07:10:43;;;;;;;18.80;14.00;;;;;;;18.33;100.00;101846.91;5070467;28;20024;-69
2023/08/11 07:13:08;;;;;;;23.95;13.10;;;;;;;18.44;100.00;101855.34;5070199;28;20372;-69
2023/08/11 07:15:34;;;;;;;18.45;11.98;;;;;;;18.52;100.00;101855.03;5069922;28;20126;-69
2023/08/11 07:17:59;;;;;;;19.65;13.25;;;;;;;18.62;100.00;101858.03;5070316;28;20028;-68
2023/08/11 07:20:25;;;;;;;20.23;12.63;;;;;;;18.72;100.00;101855.63;5070477;28;20043;-69
2023/08/11 07:22:51;;;;;;;20.63;12.60;;;;;;;18.76;100.00;101854.19;5070301;28;20032;-69
2023/08/11 07:25:16;;;;;;;18.77;12.23;;;;;;;18.82;100.00;101858.66;5070383;28;20056;-69
2023/08/11 07:27:42;;;;;;;18.33;12.00;;;;;;;18.93;100.00;101853.53;5071175;28;20052;-70
2023/08/11 07:30:08;;;;;;;22.65;13.32;;;;;;;19.02;100.00;101852.16;5071265;28;20082;-71
2023/08/11 07:32:33;;;;;;;18.48;10.55;;;;;;;19.07;100.00;101846.91;5072507;28;20056;-68
2023/08/11 07:34:59;;;;;;;21.05;11.93;;;;;;;19.17;100.00;101849.88;5074397;28;20041;-71
2023/08/11 07:37:24;;;;;;;17.27;11.20;;;;;;;19.27;100.00;101849.34;5072251;28;20047;-68
2023/08/11 07:39:49;;;;;;;18.65;10.60;;;;;;;19.33;100.00;101844.88;5073722;28;20097;-69
2023/08/11 07:42:15;;;;;;;16.13;9.45;;;;;;;19.45;100.00;101853.88;5070899;28;20125;-69
2023/08/11 07:44:40;;;;;;;18.17;9.77;;;;;;;19.56;100.00;101844.94;5072556;28;20109;-69
2023/08/11 07:47:06;;;;;;;19.15;9.90;;;;;;;19.69;100.00;101846.66;5073477;28;20407;-69
2023/08/11 07:49:31;;;;;;;16.60;8.32;;;;;;;19.80;100.00;101848.53;5073360;28;20028;-68
2023/08/11 07:51:59;;;;;;;17.10;8.18;;;;;;;19.89;100.00;101851.75;5070631;28;20791;-70
2023/08/11 07:54:25;;;;;;;16.38;9.32;;;;;;;20.00;100.00;101858.22;5072970;28;20024;-70
2023/08/11 07:56:50;;;;;;;17.48;9.93;;;;;;;20.08;100.00;101855.16;5072104;28;20338;-70
2023/08/11 07:59:16;;;;;;;17.45;10.30;;;;;;;20.27;100.00;101847.72;5072904;28;20067;-73
2023/08/11 08:01:41;;;;;;;16.02;9.68;;;;;;;20.35;100.00;101848.16;5073436;28;20051;-73
2023/08/11 08:04:07;;;;;;;17.13;9.20;;;;;;;20.46;100.00;101861.94;5071653;28;20514;-70
2023/08/11 08:06:32;;;;;;;15.48;9.60;;;;;;;20.52;100.00;101856.41;5071349;28;20490;-71
2023/08/11 08:08:59;;;;;;;14.52;7.30;;;;;;;20.69;100.00;101858.41;5071306;28;20077;-72
2023/08/11 08:11:24;;;;;;;12.10;6.68;;;;;;;21.09;100.00;101854.84;5069403;28;20028;-71
2023/08/11 08:13:50;;;;;;;10.85;6.20;;;;;;;22.29;92.95;101861.78;5068255;28;20079;-71
2023/08/11 08:16:15;;;;;;;11.48;5.68;;;;;;;24.67;82.66;101856.38;5069731;28;20081;-71
2023/08/11 08:18:41;;;;;;;10.80;6.32;;;;;;;26.59;70.79;101860.53;5069544;28;20462;-72
2023/08/11 08:21:06;;;;;;;12.85;6.47;;;;;;;28.18;64.68;101865.69;5069883;28;20090;-72
2023/08/11 08:23:32;;;;;;;12.27;5.13;;;;;;;29.38;60.74;101856.47;5069551;28;20448;-72
2023/08/11 08:25:57;;;;;;;5.85;3.55;;;;;;;30.70;54.22;101858.69;5069457;28;20043;-72
2023/08/11 08:28:23;;;;;;;8.35;4.30;;;;;;;31.18;53.25;101860.13;5069323;28;20034;-72
2023/08/11 08:30:48;;;;;;;11.57;5.38;;;;;;;31.71;49.32;101864.09;5069472;28;20074;-72
2023/08/11 08:33:13;;;;;;;5.78;3.40;;;;;;;32.29;49.10;101863.88;5069460;28;20049;-72
2023/08/11 08:35:39;;;;;;;7.68;3.78;;;;;;;32.55;46.82;101857.66;5069329;28;20048;-72
2023/08/11 08:38:05;;;;;;;7.53;3.67;;;;;;;32.71;44.90;101856.03;5069515;28;20032;-73
2023/08/11 08:40:32;;;;;;;9.18;4.18;;;;;;;32.79;45.75;101857.19;5068073;28;20395;-72
2023/08/11 08:42:59;;;;;;;4.93;3.55;;;;;;;33.32;44.20;101856.06;5088396;28;20044;-72
2023/08/11 08:45:25;;;;;;;8.77;3.65;;;;;;;33.59;43.96;101865.19;5088717;28;20035;-72
2023/08/11 08:47:52;;;;;;;5.97;3.03;;;;;;;33.62;41.57;101861.75;5088486;28;20029;-73
2023/08/11 08:50:18;;;;;;;7.68;3.53;;;;;;;33.86;40.57;101863.97;5087160;28;20036;-73
2023/08/11 08:52:44;;;;;;;5.78;2.90;;;;;;;33.83;41.16;101853.56;5088483;28;20035;-72
2023/08/11 08:55:09;;;;;;;5.75;3.40;;;;;;;33.33;40.95;101860.47;5088560;28;20032;-72
2023/08/11 08:57:35;;;;;;;9.68;3.70;;;;;;;31.82;45.29;101851.66;5088574;28;20032;-72
2023/08/11 09:00:00;;;;;;;6.78;3.78;;;;;;;29.95;47.72;101845.31;5086940;28;20036;-71
2023/08/11 09:02:28;;;;;;;6.53;3.65;;;;;;;28.73;52.78;101855.19;5088867;28;20028;-72
2023/08/11 09:04:54;;;;;;;8.43;4.15;;;;;;;27.76;54.13;101853.47;5088428;28;20035;-72
2023/08/11 09:07:19;;;;;;;6.07;3.80;;;;;;;27.15;57.89;101853.94;5088311;28;20040;-72
2023/08/11 09:09:44;;;;;;;7.93;3.92;;;;;;;26.62;60.88;101854.50;5088168;28;20034;-72
2023/08/11 09:12:10;;;;;;;8.43;3.72;;;;;;;26.13;61.68;101856.00;5088236;28;20035;-72
2023/08/11 09:14:37;;;;;;;5.60;3.35;;;;;;;25.89;64.96;101846.75;5086927;28;20036;-72
2023/08/11 09:17:03;;;;;;;7.15;3.75;;;;;;;25.74;62.74;101842.91;5088385;28;20025;-71
2023/08/11 09:19:29;;;;;;;6.57;3.25;;;;;;;25.69;66.11;101840.16;5088488;28;20533;-71
2023/08/11 09:21:54;;;;;;;10.27;3.70;;;;;;;25.60;62.89;101844.56;5079737;28;20040;-71
2023/08/11 09:24:19;;;;;;;5.85;3.28;;;;;;;25.42;66.06;101851.38;5071916;28;20032;-71
2023/08/11 09:26:52;;;;;;;5.50;4.15;;;;;;;25.32;66.02;101843.19;5069001;28;20029;-71
2023/08/11 09:29:18;;;;;;;7.47;3.20;;;;;;;25.27;69.48;101849.44;5086555;28;20064;-71
2023/08/11 09:31:53;;;;;;;4.57;3.63;;;;;;;25.36;69.90;101842.38;5088049;28;20040;-71
2023/08/11 09:34:20;;;;;;;6.47;3.33;;;;;;;25.47;69.04;101839.66;5087904;28;20028;-71
2023/08/11 09:36:47;;;;;;;7.30;3.08;;;;;;;25.51;66.69;101838.81;5088304;28;20965;-71
2023/08/11 09:39:13;;;;;;;6.95;3.55;;;;;;;25.58;67.60;101841.28;5089760;28;20047;-71
2023/08/11 09:41:41;;;;;;;5.28;2.88;;;;;;;25.62;66.11;101845.09;5091947;28;20024;-71
2023/08/11 09:44:07;;;;;;;7.60;3.22;;;;;;;25.59;64.13;101840.19;5091981;28;20024;-71
2023/08/11 09:46:36;;;;;;;6.95;3.08;;;;;;;25.68;67.43;101843.19;5090602;28;20122;-71
2023/08/11 09:49:01;;;;;;;6.45;3.58;;;;;;;25.73;64.06;101833.06;5091764;28;20507;-71
2023/08/11 09:51:28;;;;;;;5.38;2.50;;;;;;;25.78;64.64;101832.22;5091438;28;20043;-71
2023/08/11 09:53:54;;;;;;;3.67;2.83;;;;;;;25.86;62.63;101834.47;5091512;28;20499;-71
2023/08/11 09:56:22;;;;;;;8.70;3.47;;;;;;;25.90;63.92;101832.81;5091561;28;20039;-71
2023/08/11 09:58:52;;;;;;;6.88;3.08;;;;;;;26.08;64.36;101834.13;5091767;28;20028;-71
2023/08/11 10:01:18;;;;;;;6.18;3.15;;;;;;;26.24;66.70;101838.47;5091499;28;20479;-72
2023/08/11 10:03:47;;;;;;;5.30;3.08;;;;;;;26.26;64.31;101834.66;5091395;28;20510;-71
2023/08/11 10:06:19;;;;;;;6.05;3.58;;;;;;;26.32;63.21;101834.34;5091448;28;20129;-71
2023/08/11 10:08:47;;;;;;;3.53;2.78;;;;;;;26.33;61.28;101836.00;5091268;28;20036;-71
2023/08/11 10:11:13;;;;;;;6.75;3.55;;;;;;;26.45;63.34;101839.19;5091397;28;20028;-71
2023/08/11 10:13:41;;;;;;;5.53;3.03;;;;;;;26.41;62.87;101834.59;5091101;28;20038;-71
2023/08/11 10:16:07;;;;;;;6.30;3.58;;;;;;;26.48;64.64;101834.28;5091133;28;20576;-72
2023/08/11 10:18:34;;;;;;;7.25;3.22;;;;;;;26.54;62.43;101836.75;5091007;28;20463;-71
2023/08/11 10:20:59;;;;;;;7.15;3.38;;;;;;;26.57;63.28;101844.41;5071828;28;20035;-71
2023/08/11 10:23:27;;;;;;;5.57;3.60;;;;;;;26.55;63.81;101854.81;5073226;28;20028;-71
2023/08/11 10:25:52;;;;;;;4.55;3.28;;;;;;;26.64;64.80;101844.09;5090498;28;20042;-71
2023/08/11 10:28:19;;;;;;;8.43;3.63;;;;;;;26.75;63.44;101834.75;5090892;28;20028;-71
2023/08/11 10:30:54;;;;;;;5.13;2.95;;;;;;;26.89;63.34;101833.00;5090779;28;20529;-71
2023/08/11 10:33:19;;;;;;;4.30;2.70;;;;;;;26.91;63.21;101830.00;5090727;28;20039;-72
2023/08/11 10:35:51;;;;;;;10.68;4.30;;;;;;;26.98;62.48;101825.00;5088985;28;20079;-71
2023/08/11 10:38:30;;;;;;;5.78;3.00;;;;;;;26.95;61.62;101822.03;5090717;28;20132;-71
2023/08/11 10:40:59;;;;;;;4.20;2.97;;;;;;;26.96;61.77;101826.38;5090809;28;20039;-71
2023/08/11 10:43:30;;;;;;;5.88;3.10;;;;;;;27.04;63.28;101820.34;5090638;28;20036;-70
2023/08/11 10:45:56;;;;;;;5.97;3.20;;;;;;;26.96;59.61;101816.28;5076089;28;20051;-71
2023/08/11 10:48:22;;;;;;;3.20;2.50;;;;;;;27.03;62.07;101819.50;5073957;28;20978;-69
2023/08/11 10:50:48;;;;;;;7.85;2.95;;;;;;;27.07;60.98;101820.56;5073987;28;20114;-71
2023/08/11 10:53:16;;;;;;;8.02;3.33;;;;;;;27.21;62.78;101828.19;5074155;28;20415;-69
2023/08/11 10:55:41;;;;;;;4.22;2.78;;;;;;;27.25;61.87;101818.28;5073943;28;20035;-69
2023/08/11 10:58:17;;;;;;;2.65;2.17;;;;;;;27.32;64.25;101821.50;5073766;28;20621;-69
2023/08/11 11:00:42;;;;;;;8.10;4.60;;;;;;;27.25;59.11;101821.84;5073069;28;20408;-71
2023/08/11 11:03:09;;;;;;;5.22;2.80;;;;;;;27.32;61.37;101827.81;5073431;28;20059;-70
2023/08/11 11:05:34;;;;;;;3.25;2.65;;;;;;;27.44;61.11;101816.47;5074316;28;20111;-69